createdAt,value
2022-11-10T00:00:11.515Z,11.00
2022-11-10T00:03:02.108Z,11.00
2022-11-10T00:05:48.986Z,11.00
2022-11-10T00:08:36.077Z,11.00
2022-11-10T00:11:22.975Z,11.00
2022-11-10T00:14:29.547Z,10.90
2022-11-10T00:17:16.391Z,10.90
2022-11-10T00:20:03.726Z,10.90
2022-11-10T00:22:50.655Z,10.80
2022-11-10T00:25:37.197Z,10.90
2022-11-10T00:28:24.288Z,10.90
2022-11-10T00:31:13.469Z,10.90
2022-11-10T00:34:00.537Z,10.90
2022-11-10T00:36:47.556Z,10.90
2022-11-10T00:39:34.277Z,10.90
2022-11-10T00:42:21.054Z,10.90
2022-11-10T00:45:08.918Z,10.90
2022-11-10T00:47:56.830Z,10.90
2022-11-10T00:50:43.696Z,10.90
2022-11-10T00:53:30.395Z,10.80
2022-11-10T00:56:17.806Z,10.80
2022-11-10T00:59:04.429Z,10.80
2022-11-10T01:01:51.257Z,10.70
2022-11-10T01:04:39.371Z,10.80
2022-11-10T01:07:26.200Z,10.80
2022-11-10T01:10:12.919Z,10.80
2022-11-10T01:12:59.941Z,10.80
2022-11-10T01:15:46.764Z,10.80
2022-11-10T01:18:33.432Z,10.80
2022-11-10T01:21:22.491Z,10.80
2022-11-10T01:24:09.515Z,10.80
2022-11-10T01:26:56.627Z,10.80
2022-11-10T01:29:43.999Z,10.70
2022-11-10T01:32:32.273Z,10.70
2022-11-10T01:35:18.915Z,10.70
2022-11-10T01:38:06.909Z,10.60
2022-11-10T01:40:53.555Z,10.60
2022-11-10T01:43:41.146Z,10.60
2022-11-10T01:46:28.060Z,10.60
2022-11-10T01:49:18.166Z,10.60
2022-11-10T01:52:08.822Z,10.60
2022-11-10T01:54:57.059Z,10.60
2022-11-10T01:57:43.924Z,10.60
2022-11-10T02:00:55.820Z,10.50
2022-11-10T02:03:46.996Z,10.50
2022-11-10T02:06:38.209Z,10.40
2022-11-10T02:09:25.265Z,10.40
2022-11-10T02:12:13.742Z,10.40
2022-11-10T02:15:00.527Z,10.40
2022-11-10T02:17:48.912Z,10.30
2022-11-10T02:20:36.214Z,10.30
2022-11-10T02:23:47.452Z,10.30
2022-11-10T02:26:34.382Z,10.30
2022-11-10T02:29:21.801Z,10.30
2022-11-10T02:32:08.372Z,10.30
2022-11-10T02:34:55.096Z,10.30
2022-11-10T02:37:41.729Z,10.20
2022-11-10T02:40:29.553Z,10.30
2022-11-10T02:43:19.348Z,10.20
2022-11-10T02:46:06.549Z,10.20
2022-11-10T02:48:53.279Z,10.20
2022-11-10T02:51:40.232Z,10.20
2022-11-10T02:54:27.662Z,10.20
2022-11-10T02:57:15.862Z,10.20
2022-11-10T03:00:02.445Z,10.20
2022-11-10T03:02:49.582Z,10.20
2022-11-10T03:05:36.091Z,10.20
2022-11-10T03:08:22.852Z,10.20
2022-11-10T03:11:09.593Z,10.20
2022-11-10T03:14:02.480Z,10.20
2022-11-10T03:16:49.494Z,10.20
2022-11-10T03:19:37.358Z,10.20
2022-11-10T03:22:23.997Z,10.20
2022-11-10T03:25:11.714Z,10.10
2022-11-10T03:27:58.806Z,10.10
2022-11-10T03:30:46.981Z,10.10
2022-11-10T03:33:33.524Z,10.20
2022-11-10T03:36:20.381Z,10.10
2022-11-10T03:39:06.833Z,10.10
2022-11-10T03:41:53.616Z,10.10
2022-11-10T03:44:40.360Z,10.10
2022-11-10T03:47:28.364Z,10.00
2022-11-10T03:50:15.511Z,10.00
2022-11-10T03:53:02.520Z,10.00
2022-11-10T03:55:49.200Z,10.00
2022-11-10T03:58:37.900Z,10.00
2022-11-10T04:01:24.794Z,10.00
2022-11-10T04:04:34.485Z,10.00
2022-11-10T04:07:39.172Z,10.00
2022-11-10T04:10:25.957Z,10.00
2022-11-10T04:13:30.945Z,10.00
2022-11-10T04:16:17.907Z,10.00
2022-11-10T04:19:04.675Z,10.00
2022-11-10T04:21:52.627Z,10.00
2022-11-10T04:24:39.411Z,10.00
2022-11-10T04:27:26.322Z,10.00
2022-11-10T04:30:13.345Z,9.90
2022-11-10T04:32:59.874Z,10.00
2022-11-10T04:35:46.728Z,10.00
2022-11-10T04:38:36.131Z,9.90
2022-11-10T04:41:23.226Z,9.90
2022-11-10T04:44:10.065Z,9.90
2022-11-10T04:46:57.172Z,9.90
2022-11-10T04:49:43.732Z,9.90
2022-11-10T04:52:30.309Z,9.80
2022-11-10T04:55:18.710Z,9.80
2022-11-10T04:58:05.975Z,9.80
2022-11-10T05:00:52.672Z,9.80
2022-11-10T05:03:39.345Z,9.70
2022-11-10T05:06:26.360Z,9.70
2022-11-10T05:09:12.766Z,9.70
2022-11-10T05:12:00.909Z,9.70
2022-11-10T05:14:47.891Z,9.70
2022-11-10T05:17:35.356Z,9.70
2022-11-10T05:20:24.285Z,9.70
2022-11-10T05:23:28.572Z,9.70
2022-11-10T05:26:17.447Z,9.70
2022-11-10T05:29:05.319Z,9.70
2022-11-10T05:31:52.600Z,9.70
2022-11-10T05:34:39.115Z,9.70
2022-11-10T05:37:25.784Z,9.80
2022-11-10T05:40:13.370Z,9.70
2022-11-10T05:43:00.224Z,9.80
2022-11-10T05:45:48.620Z,9.80
2022-11-10T05:48:35.161Z,9.80
2022-11-10T05:51:22.010Z,9.70
2022-11-10T05:54:09.525Z,9.80
2022-11-10T05:56:56.106Z,9.80
2022-11-10T05:59:42.545Z,9.80
2022-11-10T06:02:30.453Z,9.80
2022-11-10T06:05:17.852Z,9.70
2022-11-10T06:08:05.873Z,9.70
2022-11-10T06:10:52.654Z,9.70
2022-11-10T06:13:39.130Z,9.70
2022-11-10T06:16:25.969Z,9.70
2022-11-10T06:19:14.085Z,9.70
2022-11-10T06:22:06.391Z,9.70
2022-11-10T06:24:54.603Z,9.70
2022-11-10T06:27:44.823Z,9.70
2022-11-10T06:30:32.560Z,9.70
2022-11-10T06:33:19.457Z,9.70
2022-11-10T06:36:08.290Z,9.70
2022-11-10T06:38:55.156Z,9.70
2022-11-10T06:41:42.201Z,9.70
2022-11-10T06:44:29.031Z,9.70
2022-11-10T06:47:16.894Z,9.70
2022-11-10T06:50:03.689Z,9.70
2022-11-10T06:52:56.278Z,9.70
2022-11-10T06:55:43.288Z,9.80
2022-11-10T06:58:30.148Z,9.80
2022-11-10T07:01:22.125Z,9.80
2022-11-10T07:04:24.332Z,9.80
2022-11-10T07:07:11.581Z,9.80
2022-11-10T07:10:04.115Z,9.80
2022-11-10T07:12:58.449Z,9.80
2022-11-10T07:15:45.230Z,9.80
2022-11-10T07:18:31.864Z,9.80
2022-11-10T07:21:18.430Z,9.90
2022-11-10T07:24:05.381Z,9.90
2022-11-10T07:26:54.051Z,9.90
2022-11-10T07:29:40.745Z,9.90
2022-11-10T07:32:27.538Z,9.90
2022-11-10T07:35:14.663Z,9.90
2022-11-10T07:38:04.579Z,9.90
2022-11-10T07:40:55.411Z,9.90
2022-11-10T07:43:43.473Z,10.00
2022-11-10T07:46:30.569Z,10.00
2022-11-10T07:49:17.397Z,10.00
2022-11-10T07:52:04.347Z,10.00
2022-11-10T07:54:51.448Z,10.00
2022-11-10T07:57:38.309Z,10.10
2022-11-10T08:00:26.971Z,10.10
2022-11-10T08:03:16.256Z,10.20
2022-11-10T08:06:03.621Z,10.20
2022-11-10T08:08:50.432Z,10.20
2022-11-10T08:11:37.341Z,10.20
2022-11-10T08:14:24.257Z,10.30
2022-11-10T08:17:12.700Z,10.30
2022-11-10T08:19:59.267Z,10.40
2022-11-10T08:22:46.006Z,10.40
2022-11-10T08:25:35.518Z,10.40
2022-11-10T08:28:22.912Z,10.50
2022-11-10T08:31:09.733Z,10.50
2022-11-10T08:33:58.181Z,10.50
2022-11-10T08:36:45.271Z,10.60
2022-11-10T08:39:38.955Z,10.60
2022-11-10T08:42:26.528Z,10.70
2022-11-10T08:45:13.831Z,10.60
2022-11-10T08:48:01.435Z,10.70
2022-11-10T08:50:50.212Z,10.70
2022-11-10T08:53:36.838Z,10.80
2022-11-10T08:56:23.652Z,10.80
2022-11-10T08:59:10.547Z,10.80
2022-11-10T09:01:58.540Z,10.90
2022-11-10T09:04:45.310Z,11.00
2022-11-10T09:07:35.669Z,11.00
2022-11-10T09:10:22.586Z,11.00
2022-11-10T09:13:10.811Z,11.00
2022-11-10T09:15:57.830Z,11.10
2022-11-10T09:18:44.576Z,11.10
2022-11-10T09:21:31.208Z,11.10
2022-11-10T09:24:19.480Z,11.20
2022-11-10T09:27:06.169Z,11.20
2022-11-10T09:29:53.418Z,11.30
2022-11-10T09:32:40.467Z,11.40
2022-11-10T09:35:28.032Z,11.40
2022-11-10T09:38:15.172Z,11.40
2022-11-10T09:41:05.191Z,11.40
2022-11-10T09:44:03.175Z,11.50
2022-11-10T09:46:54.662Z,11.50
2022-11-10T09:49:45.847Z,11.60
2022-11-10T09:52:36.037Z,11.70
2022-11-10T09:55:32.757Z,11.80
2022-11-10T09:58:24.908Z,11.80
2022-11-10T10:01:20.881Z,11.90
2022-11-10T10:04:17.680Z,12.00
2022-11-10T10:07:11.773Z,12.20
2022-11-10T10:10:04.651Z,12.30
2022-11-10T10:13:04.352Z,12.40
2022-11-10T10:16:04.826Z,12.40
2022-11-10T10:19:00.181Z,12.60
2022-11-10T10:22:02.662Z,12.50
2022-11-10T10:24:50.026Z,12.40
2022-11-10T10:27:41.533Z,12.40
2022-11-10T10:30:28.190Z,12.40
2022-11-10T10:33:18.658Z,12.40
2022-11-10T10:36:10.133Z,12.40
2022-11-10T10:38:58.603Z,12.00
2022-11-10T10:41:47.356Z,11.90
2022-11-10T10:44:33.973Z,12.20
2022-11-10T10:47:21.953Z,12.70
2022-11-10T10:50:27.193Z,12.70
2022-11-10T10:53:16.396Z,12.80
2022-11-10T10:56:07.685Z,13.00
2022-11-10T10:58:56.305Z,13.30
2022-11-10T11:01:44.935Z,13.30
2022-11-10T11:04:34.561Z,13.50
2022-11-10T11:07:25.415Z,13.70
2022-11-10T11:10:23.301Z,13.70
2022-11-10T11:13:21.367Z,15.30
2022-11-10T11:16:12.160Z,17.60
2022-11-10T11:18:59.747Z,18.90
2022-11-10T11:22:00.210Z,17.80
2022-11-10T11:24:55.800Z,19.00
2022-11-10T11:27:54.749Z,19.90
2022-11-10T11:30:54.364Z,19.00
2022-11-10T11:33:47.239Z,16.60
2022-11-10T11:36:42.566Z,16.40
2022-11-10T11:39:44.424Z,17.90
2022-11-10T11:42:46.667Z,18.50
2022-11-10T11:45:44.093Z,16.40
2022-11-10T11:48:52.523Z,14.70
2022-11-10T11:51:45.000Z,13.70
2022-11-10T11:54:46.418Z,13.40
2022-11-10T11:57:44.203Z,14.00
2022-11-10T12:00:43.249Z,13.70
2022-11-10T12:03:47.671Z,13.90
2022-11-10T12:06:48.959Z,14.30
2022-11-10T12:09:45.314Z,13.80
2022-11-10T12:12:51.301Z,13.70
2022-11-10T12:15:45.605Z,14.20
2022-11-10T12:18:36.260Z,14.50
2022-11-10T12:21:26.175Z,15.10
2022-11-10T12:24:28.404Z,16.20
2022-11-10T12:27:19.690Z,15.30
2022-11-10T12:30:12.840Z,14.70
2022-11-10T12:33:06.960Z,15.10
2022-11-10T12:35:56.359Z,15.90
2022-11-10T12:38:49.275Z,15.10
2022-11-10T12:41:40.970Z,15.20
2022-11-10T12:44:31.631Z,15.60
2022-11-10T12:47:22.742Z,15.60
2022-11-10T12:50:30.556Z,15.20
2022-11-10T12:53:23.891Z,14.70
2022-11-10T12:56:16.856Z,14.10
2022-11-10T12:59:32.340Z,13.80
2022-11-10T13:02:26.947Z,13.60
2022-11-10T13:05:31.085Z,13.60
2022-11-10T13:08:27.130Z,13.70
2022-11-10T13:11:27.610Z,13.70
2022-11-10T13:14:24.018Z,13.80
2022-11-10T13:17:12.792Z,13.90
2022-11-10T13:20:20.848Z,14.00
2022-11-10T13:23:22.914Z,14.10
2022-11-10T13:26:12.444Z,13.80
2022-11-10T13:29:03.570Z,13.70
2022-11-10T13:31:53.240Z,13.60
2022-11-10T13:34:40.983Z,13.60
2022-11-10T13:37:50.445Z,13.80
2022-11-10T13:40:40.871Z,13.80
2022-11-10T13:43:28.690Z,13.70
2022-11-10T13:46:16.079Z,13.60
2022-11-10T13:49:24.387Z,13.50
2022-11-10T13:52:17.015Z,13.50
2022-11-10T13:55:21.152Z,13.50
2022-11-10T13:58:12.500Z,13.50
2022-11-10T14:01:22.590Z,13.50
2022-11-10T14:04:09.196Z,13.50
2022-11-10T14:06:58.428Z,13.50
2022-11-10T14:09:47.767Z,13.50
2022-11-10T14:12:44.132Z,13.60
2022-11-10T14:15:40.114Z,13.60
2022-11-10T14:18:29.210Z,13.50
2022-11-10T14:21:23.971Z,13.50
2022-11-10T14:24:21.397Z,13.40
2022-11-10T14:27:15.614Z,13.40
2022-11-10T14:30:19.526Z,13.40
2022-11-10T14:33:11.689Z,13.40
2022-11-10T14:36:01.522Z,13.30
2022-11-10T14:38:48.910Z,13.30
2022-11-10T14:41:36.025Z,13.30
2022-11-10T14:44:24.967Z,13.20
2022-11-10T14:47:23.666Z,13.20
2022-11-10T14:50:20.573Z,13.20
2022-11-10T14:53:13.502Z,13.20
2022-11-10T14:56:02.413Z,13.20
2022-11-10T14:58:50.708Z,13.20
2022-11-10T15:01:40.711Z,13.20
2022-11-10T15:04:31.867Z,13.20
2022-11-10T15:07:19.582Z,13.30
2022-11-10T15:10:12.329Z,13.20
2022-11-10T15:13:04.443Z,13.10
2022-11-10T15:15:53.556Z,13.10
2022-11-10T15:18:40.619Z,13.10
2022-11-10T15:21:33.965Z,13.00
2022-11-10T15:24:21.701Z,13.00
2022-11-10T15:27:15.008Z,12.90
2022-11-10T15:30:03.755Z,12.80
2022-11-10T15:32:51.386Z,12.70
2022-11-10T15:35:38.568Z,12.70
2022-11-10T15:38:30.386Z,12.60
2022-11-10T15:41:27.286Z,12.60
2022-11-10T15:44:17.390Z,12.60
2022-11-10T15:47:04.193Z,12.50
2022-11-10T15:49:51.167Z,12.40
2022-11-10T15:52:40.120Z,12.30
2022-11-10T15:55:29.624Z,12.30
2022-11-10T15:58:19.705Z,12.20
2022-11-10T16:01:07.337Z,12.20
2022-11-10T16:03:55.733Z,12.10
2022-11-10T16:06:42.791Z,12.00
2022-11-10T16:09:29.957Z,12.00
2022-11-10T16:12:20.989Z,12.10
2022-11-10T16:15:16.216Z,12.00
2022-11-10T16:18:05.253Z,12.10
2022-11-10T16:20:54.179Z,12.00
2022-11-10T16:23:41.040Z,11.90
2022-11-10T16:26:27.987Z,12.00
2022-11-10T16:29:19.511Z,12.00
2022-11-10T16:32:06.982Z,12.00
2022-11-10T16:34:53.745Z,11.90
2022-11-10T16:37:43.076Z,11.80
2022-11-10T16:40:30.026Z,11.80
2022-11-10T16:43:18.354Z,11.80
2022-11-10T16:46:15.903Z,11.80
2022-11-10T16:49:05.165Z,11.70
2022-11-10T16:51:51.870Z,11.60
2022-11-10T16:54:38.893Z,11.50
2022-11-10T16:57:25.884Z,11.40
2022-11-10T17:00:13.912Z,11.40
2022-11-10T17:03:05.675Z,11.30
2022-11-10T17:05:52.665Z,11.20
2022-11-10T17:08:39.416Z,11.20
2022-11-10T17:11:26.739Z,11.30
2022-11-10T17:14:13.961Z,11.30
2022-11-10T17:17:01.567Z,11.30
2022-11-10T17:19:51.243Z,11.30
2022-11-10T17:22:38.792Z,11.40
2022-11-10T17:25:27.936Z,11.30
2022-11-10T17:28:17.151Z,11.30
2022-11-10T17:31:04.259Z,11.30
2022-11-10T17:33:51.175Z,11.30
2022-11-10T17:36:40.116Z,11.30
2022-11-10T17:39:27.048Z,11.30
2022-11-10T17:42:14.804Z,11.30
2022-11-10T17:45:01.628Z,11.20
2022-11-10T17:47:48.909Z,11.20
2022-11-10T17:50:37.667Z,11.20
2022-11-10T17:53:28.377Z,11.10
2022-11-10T17:56:15.977Z,11.10
2022-11-10T17:59:02.582Z,11.00
2022-11-10T18:01:49.615Z,10.90
2022-11-10T18:04:36.447Z,10.90
2022-11-10T18:07:23.648Z,10.80
2022-11-10T18:10:13.981Z,10.70
2022-11-10T18:13:00.936Z,10.70
2022-11-10T18:15:49.171Z,10.70
2022-11-10T18:18:37.046Z,10.70
2022-11-10T18:21:23.813Z,10.70
2022-11-10T18:24:10.802Z,10.70
2022-11-10T18:27:00.161Z,10.70
2022-11-10T18:29:47.438Z,10.70
2022-11-10T18:32:34.811Z,10.70
2022-11-10T18:35:21.699Z,10.70
2022-11-10T18:38:10.404Z,10.70
2022-11-10T18:41:17.397Z,10.70
2022-11-10T18:44:06.063Z,10.60
2022-11-10T18:46:53.215Z,10.60
2022-11-10T18:49:40.209Z,10.70
2022-11-10T18:52:27.176Z,10.70
2022-11-10T18:55:14.150Z,10.60
2022-11-10T18:58:01.102Z,10.60
2022-11-10T19:00:49.478Z,10.50
2022-11-10T19:03:37.750Z,10.40
2022-11-10T19:06:24.971Z,10.40
2022-11-10T19:09:12.713Z,10.40
2022-11-10T19:11:59.352Z,10.30
2022-11-10T19:14:46.377Z,10.30
2022-11-10T19:17:34.948Z,10.20
2022-11-10T19:20:22.132Z,10.20
2022-11-10T19:23:09.353Z,10.10
2022-11-10T19:26:01.894Z,10.10
2022-11-10T19:28:48.965Z,10.00
2022-11-10T19:31:35.718Z,10.00
2022-11-10T19:34:27.072Z,10.00
2022-11-10T19:37:15.205Z,9.90
2022-11-10T19:40:02.364Z,9.80
2022-11-10T19:42:50.098Z,9.70
2022-11-10T19:45:37.396Z,9.70
2022-11-10T19:48:24.346Z,9.60
2022-11-10T19:51:14.160Z,9.60
2022-11-10T19:54:03.175Z,9.50
2022-11-10T19:56:50.038Z,9.50
2022-11-10T19:59:36.968Z,9.50
2022-11-10T20:02:25.107Z,9.50
2022-11-10T20:05:16.265Z,9.50
2022-11-10T20:08:11.756Z,9.50
2022-11-10T20:11:01.662Z,9.50
2022-11-10T20:13:53.331Z,9.50
2022-11-10T20:16:41.579Z,9.50
2022-11-10T20:19:28.491Z,9.50
2022-11-10T20:22:15.240Z,9.50
2022-11-10T20:25:03.186Z,9.40
2022-11-10T20:27:49.764Z,9.40
2022-11-10T20:30:42.670Z,9.40
2022-11-10T20:33:30.142Z,9.30
2022-11-10T20:36:20.674Z,9.30
2022-11-10T20:39:08.498Z,9.20
2022-11-10T20:41:58.337Z,9.20
2022-11-10T20:44:45.434Z,9.10
2022-11-10T20:47:32.430Z,9.20
2022-11-10T20:50:24.159Z,9.20
2022-11-10T20:53:11.405Z,9.30
2022-11-10T20:55:59.520Z,9.20
2022-11-10T20:58:48.896Z,9.30
2022-11-10T21:01:37.610Z,9.20
2022-11-10T21:04:24.937Z,9.20
2022-11-10T21:07:12.091Z,9.20
2022-11-10T21:09:59.184Z,9.30
2022-11-10T21:12:52.172Z,9.30
2022-11-10T21:15:41.052Z,9.30
2022-11-10T21:18:29.590Z,9.20
2022-11-10T21:21:21.900Z,9.20
2022-11-10T21:24:09.924Z,9.20
2022-11-10T21:26:56.927Z,9.20
2022-11-10T21:29:43.947Z,9.20
2022-11-10T21:32:32.528Z,9.20
2022-11-10T21:35:19.646Z,9.20
2022-11-10T21:38:06.698Z,9.10
2022-11-10T21:40:53.413Z,9.10
2022-11-10T21:43:40.209Z,9.10
2022-11-10T21:46:27.057Z,9.10
2022-11-10T21:49:15.144Z,9.00
2022-11-10T21:52:01.720Z,9.10
2022-11-10T21:54:48.163Z,9.20
2022-11-10T21:57:35.473Z,9.20
2022-11-10T22:00:22.334Z,9.20
2022-11-10T22:03:09.435Z,9.10
2022-11-10T22:06:03.090Z,9.00
2022-11-10T22:08:50.193Z,9.00
2022-11-10T22:11:54.516Z,8.90
2022-11-10T22:14:58.627Z,9.10
2022-11-10T22:18:02.852Z,9.00
2022-11-10T22:20:50.061Z,8.90
2022-11-10T22:23:55.778Z,8.80
2022-11-10T22:26:42.698Z,8.80
2022-11-10T22:29:31.899Z,8.70
2022-11-10T22:32:19.549Z,8.70
2022-11-10T22:35:07.396Z,8.70
2022-11-10T22:37:54.128Z,8.60
2022-11-10T22:41:00.596Z,8.60
2022-11-10T22:44:06.193Z,8.60
2022-11-10T22:46:53.310Z,8.50
2022-11-10T22:49:40.346Z,8.40
2022-11-10T22:52:27.500Z,8.40
2022-11-10T22:55:14.165Z,8.40
2022-11-10T22:58:02.039Z,8.40
2022-11-10T23:00:48.864Z,8.30
2022-11-10T23:03:37.612Z,8.20
2022-11-10T23:06:24.380Z,8.10
2022-11-10T23:09:11.143Z,8.00
2022-11-10T23:11:57.596Z,7.90
2022-11-10T23:14:45.623Z,7.90
2022-11-10T23:17:32.384Z,7.90
2022-11-10T23:20:19.327Z,7.90
2022-11-10T23:23:06.031Z,7.90
2022-11-10T23:26:00.890Z,7.80
2022-11-10T23:28:48.184Z,7.80
2022-11-10T23:31:36.294Z,7.80
2022-11-10T23:34:22.885Z,7.80
2022-11-10T23:37:09.603Z,7.70
2022-11-10T23:39:56.147Z,7.80
2022-11-10T23:42:43.043Z,7.80
2022-11-10T23:46:00.161Z,7.80
2022-11-10T23:48:39.313Z,7.80
2022-11-10T23:51:26.270Z,7.80
2022-11-10T23:54:13.147Z,7.80
2022-11-10T23:56:59.535Z,7.70
2022-11-10T23:59:46.586Z,7.60
